sensor_id;sensor_type;location;lat;lon;timestamp;P1;durP1;ratioP1;P2;durP2;ratioP2
27612;SDS011;15036;48.094;-1.690;2023-07-28T00:01:24;2.20;;;1.50;;
27612;SDS011;15036;48.094;-1.690;2023-07-28T00:03:49;3.07;;;1.50;;
27612;SDS011;15036;48.094;-1.690;2023-07-28T00:06:15;2.70;;;1.55;;
27612;SDS011;15036;48.094;-1.690;2023-07-28T00:08:40;2.40;;;1.50;;
27612;SDS011;15036;48.094;-1.690;2023-07-28T00:11:13;3.47;;;1.60;;
27612;SDS011;15036;48.094;-1.690;2023-07-28T00:13:39;3.65;;;1.70;;
27612;SDS011;15036;48.094;-1.690;2023-07-28T00:16:05;2.93;;;1.60;;
27612;SDS011;15036;48.094;-1.690;2023-07-28T00:18:31;3.63;;;1.77;;
27612;SDS011;15036;48.094;-1.690;2023-07-28T00:20:56;3.30;;;1.80;;
27612;SDS011;15036;48.094;-1.690;2023-07-28T00:23:21;3.73;;;1.70;;
27612;SDS011;15036;48.094;-1.690;2023-07-28T00:25:47;3.63;;;1.80;;
27612;SDS011;15036;48.094;-1.690;2023-07-28T00:28:12;3.17;;;1.77;;
27612;SDS011;15036;48.094;-1.690;2023-07-28T00:30:38;3.40;;;1.70;;
27612;SDS011;15036;48.094;-1.690;2023-07-28T00:33:04;4.30;;;1.70;;
27612;SDS011;15036;48.094;-1.690;2023-07-28T00:35:29;3.25;;;1.80;;
27612;SDS011;15036;48.094;-1.690;2023-07-28T00:37:54;3.33;;;1.80;;
27612;SDS011;15036;48.094;-1.690;2023-07-28T00:40:21;3.92;;;1.80;;
27612;SDS011;15036;48.094;-1.690;2023-07-28T00:42:47;4.25;;;1.80;;
27612;SDS011;15036;48.094;-1.690;2023-07-28T00:45:12;3.30;;;1.90;;
27612;SDS011;15036;48.094;-1.690;2023-07-28T00:47:38;3.27;;;1.90;;
27612;SDS011;15036;48.094;-1.690;2023-07-28T00:50:03;3.58;;;1.95;;
27612;SDS011;15036;48.094;-1.690;2023-07-28T00:52:29;4.53;;;1.90;;
27612;SDS011;15036;48.094;-1.690;2023-07-28T00:54:56;4.20;;;1.80;;
27612;SDS011;15036;48.094;-1.690;2023-07-28T00:57:21;3.47;;;1.80;;
27612;SDS011;15036;48.094;-1.690;2023-07-28T00:59:46;4.03;;;1.77;;
27612;SDS011;15036;48.094;-1.690;2023-07-28T01:02:12;3.65;;;1.60;;
27612;SDS011;15036;48.094;-1.690;2023-07-28T01:04:38;4.40;;;1.80;;
27612;SDS011;15036;48.094;-1.690;2023-07-28T01:09:34;3.40;;;1.60;;
27612;SDS011;15036;48.094;-1.690;2023-07-28T01:12:08;3.08;;;1.70;;
27612;SDS011;15036;48.094;-1.690;2023-07-28T01:14:34;3.97;;;1.70;;
27612;SDS011;15036;48.094;-1.690;2023-07-28T01:17:01;4.05;;;1.73;;
27612;SDS011;15036;48.094;-1.690;2023-07-28T01:19:26;3.35;;;1.80;;
27612;SDS011;15036;48.094;-1.690;2023-07-28T01:21:55;3.33;;;1.67;;
27612;SDS011;15036;48.094;-1.690;2023-07-28T01:24:51;3.97;;;1.90;;
27612;SDS011;15036;48.094;-1.690;2023-07-28T01:27:25;3.33;;;1.80;;
27612;SDS011;15036;48.094;-1.690;2023-07-28T01:29:53;2.45;;;1.60;;
27612;SDS011;15036;48.094;-1.690;2023-07-28T01:32:18;3.03;;;1.90;;
27612;SDS011;15036;48.094;-1.690;2023-07-28T01:34:44;2.70;;;1.70;;
27612;SDS011;15036;48.094;-1.690;2023-07-28T01:37:11;3.35;;;1.80;;
27612;SDS011;15036;48.094;-1.690;2023-07-28T01:39:37;3.90;;;1.80;;
27612;SDS011;15036;48.094;-1.690;2023-07-28T01:42:02;2.47;;;1.60;;
27612;SDS011;15036;48.094;-1.690;2023-07-28T01:44:28;4.03;;;1.80;;
27612;SDS011;15036;48.094;-1.690;2023-07-28T01:46:53;2.72;;;1.63;;
27612;SDS011;15036;48.094;-1.690;2023-07-28T01:49:20;2.78;;;1.48;;
27612;SDS011;15036;48.094;-1.690;2023-07-28T01:51:45;3.47;;;1.90;;
27612;SDS011;15036;48.094;-1.690;2023-07-28T01:54:11;3.13;;;1.70;;
27612;SDS011;15036;48.094;-1.690;2023-07-28T01:56:36;3.97;;;1.77;;
27612;SDS011;15036;48.094;-1.690;2023-07-28T01:59:01;4.47;;;1.63;;
27612;SDS011;15036;48.094;-1.690;2023-07-28T02:01:27;2.50;;;1.50;;
27612;SDS011;15036;48.094;-1.690;2023-07-28T02:03:52;3.63;;;1.70;;
27612;SDS011;15036;48.094;-1.690;2023-07-28T02:06:17;3.93;;;1.70;;
27612;SDS011;15036;48.094;-1.690;2023-07-28T02:08:42;2.63;;;1.60;;
27612;SDS011;15036;48.094;-1.690;2023-07-28T02:11:08;3.00;;;1.50;;
27612;SDS011;15036;48.094;-1.690;2023-07-28T02:13:33;3.27;;;1.80;;
27612;SDS011;15036;48.094;-1.690;2023-07-28T02:15:58;3.95;;;1.80;;
27612;SDS011;15036;48.094;-1.690;2023-07-28T02:18:25;3.10;;;1.80;;
27612;SDS011;15036;48.094;-1.690;2023-07-28T02:20:51;3.17;;;1.70;;
27612;SDS011;15036;48.094;-1.690;2023-07-28T02:23:16;2.55;;;1.60;;
27612;SDS011;15036;48.094;-1.690;2023-07-28T02:25:42;2.90;;;1.60;;
27612;SDS011;15036;48.094;-1.690;2023-07-28T02:28:09;3.73;;;1.40;;
27612;SDS011;15036;48.094;-1.690;2023-07-28T02:30:35;2.85;;;1.60;;
27612;SDS011;15036;48.094;-1.690;2023-07-28T02:33:01;4.07;;;1.40;;
27612;SDS011;15036;48.094;-1.690;2023-07-28T02:35:26;2.50;;;1.40;;
27612;SDS011;15036;48.094;-1.690;2023-07-28T02:37:51;2.63;;;1.40;;
27612;SDS011;15036;48.094;-1.690;2023-07-28T02:40:17;2.30;;;1.43;;
27612;SDS011;15036;48.094;-1.690;2023-07-28T02:42:42;3.13;;;1.60;;
27612;SDS011;15036;48.094;-1.690;2023-07-28T02:45:08;3.30;;;1.50;;
27612;SDS011;15036;48.094;-1.690;2023-07-28T02:47:34;2.13;;;1.25;;
27612;SDS011;15036;48.094;-1.690;2023-07-28T02:50:00;3.20;;;1.40;;
27612;SDS011;15036;48.094;-1.690;2023-07-28T02:52:25;2.03;;;1.20;;
27612;SDS011;15036;48.094;-1.690;2023-07-28T02:54:51;2.67;;;1.40;;
27612;SDS011;15036;48.094;-1.690;2023-07-28T02:57:16;2.53;;;1.10;;
27612;SDS011;15036;48.094;-1.690;2023-07-28T02:59:42;1.60;;;1.10;;
27612;SDS011;15036;48.094;-1.690;2023-07-28T03:02:07;1.30;;;0.90;;
27612;SDS011;15036;48.094;-1.690;2023-07-28T03:04:32;1.53;;;0.90;;
27612;SDS011;15036;48.094;-1.690;2023-07-28T03:06:58;1.97;;;0.90;;
27612;SDS011;15036;48.094;-1.690;2023-07-28T03:09:23;2.38;;;0.90;;
27612;SDS011;15036;48.094;-1.690;2023-07-28T03:11:49;0.90;;;0.80;;
27612;SDS011;15036;48.094;-1.690;2023-07-28T03:14:14;2.03;;;0.87;;
27612;SDS011;15036;48.094;-1.690;2023-07-28T03:16:40;1.40;;;0.80;;
27612;SDS011;15036;48.094;-1.690;2023-07-28T03:19:06;2.05;;;0.80;;
27612;SDS011;15036;48.094;-1.690;2023-07-28T03:21:32;1.60;;;0.80;;
27612;SDS011;15036;48.094;-1.690;2023-07-28T03:23:57;1.43;;;0.90;;
27612;SDS011;15036;48.094;-1.690;2023-07-28T03:26:23;1.50;;;0.80;;
27612;SDS011;15036;48.094;-1.690;2023-07-28T03:28:49;1.15;;;0.80;;
27612;SDS011;15036;48.094;-1.690;2023-07-28T03:31:14;2.53;;;0.90;;
27612;SDS011;15036;48.094;-1.690;2023-07-28T03:33:39;1.63;;;0.80;;
27612;SDS011;15036;48.094;-1.690;2023-07-28T03:36:05;3.00;;;0.85;;
27612;SDS011;15036;48.094;-1.690;2023-07-28T03:38:30;1.50;;;0.70;;
27612;SDS011;15036;48.094;-1.690;2023-07-28T03:40:55;0.80;;;0.70;;
27612;SDS011;15036;48.094;-1.690;2023-07-28T03:43:21;1.33;;;0.70;;
27612;SDS011;15036;48.094;-1.690;2023-07-28T03:45:46;1.70;;;0.70;;
27612;SDS011;15036;48.094;-1.690;2023-07-28T03:48:12;1.23;;;0.70;;
27612;SDS011;15036;48.094;-1.690;2023-07-28T03:50:38;3.50;;;1.00;;
27612;SDS011;15036;48.094;-1.690;2023-07-28T03:53:04;2.23;;;0.80;;
27612;SDS011;15036;48.094;-1.690;2023-07-28T03:55:29;1.10;;;0.80;;
27612;SDS011;15036;48.094;-1.690;2023-07-28T03:57:55;1.57;;;0.80;;
27612;SDS011;15036;48.094;-1.690;2023-07-28T04:00:21;2.00;;;0.90;;
27612;SDS011;15036;48.094;-1.690;2023-07-28T04:02:46;1.20;;;0.85;;
27612;SDS011;15036;48.094;-1.690;2023-07-28T04:05:12;1.50;;;0.80;;
27612;SDS011;15036;48.094;-1.690;2023-07-28T04:07:37;1.73;;;0.90;;
27612;SDS011;15036;48.094;-1.690;2023-07-28T04:10:03;1.80;;;0.80;;
27612;SDS011;15036;48.094;-1.690;2023-07-28T04:12:29;2.30;;;0.70;;
27612;SDS011;15036;48.094;-1.690;2023-07-28T04:14:55;1.17;;;0.70;;
27612;SDS011;15036;48.094;-1.690;2023-07-28T04:17:20;0.93;;;0.75;;
27612;SDS011;15036;48.094;-1.690;2023-07-28T04:19:45;1.43;;;0.70;;
27612;SDS011;15036;48.094;-1.690;2023-07-28T04:22:11;1.85;;;0.70;;
27612;SDS011;15036;48.094;-1.690;2023-07-28T04:24:36;1.37;;;0.77;;
27612;SDS011;15036;48.094;-1.690;2023-07-28T04:27:01;1.20;;;0.63;;
27612;SDS011;15036;48.094;-1.690;2023-07-28T04:29:27;1.23;;;0.70;;
27612;SDS011;15036;48.094;-1.690;2023-07-28T04:31:52;1.60;;;0.70;;
27612;SDS011;15036;48.094;-1.690;2023-07-28T04:34:18;1.17;;;0.77;;
27612;SDS011;15036;48.094;-1.690;2023-07-28T04:36:43;1.63;;;0.90;;
27612;SDS011;15036;48.094;-1.690;2023-07-28T04:39:08;2.40;;;0.90;;
27612;SDS011;15036;48.094;-1.690;2023-07-28T04:41:34;1.90;;;0.90;;
27612;SDS011;15036;48.094;-1.690;2023-07-28T04:43:59;1.23;;;0.90;;
27612;SDS011;15036;48.094;-1.690;2023-07-28T04:46:26;1.45;;;0.98;;
27612;SDS011;15036;48.094;-1.690;2023-07-28T04:48:53;2.07;;;0.80;;
27612;SDS011;15036;48.094;-1.690;2023-07-28T04:51:19;1.73;;;0.77;;
27612;SDS011;15036;48.094;-1.690;2023-07-28T04:53:44;1.47;;;0.90;;
27612;SDS011;15036;48.094;-1.690;2023-07-28T04:56:09;1.00;;;0.80;;
27612;SDS011;15036;48.094;-1.690;2023-07-28T04:58:35;1.17;;;0.83;;
27612;SDS011;15036;48.094;-1.690;2023-07-28T05:01:00;1.10;;;0.80;;
27612;SDS011;15036;48.094;-1.690;2023-07-28T05:03:26;2.20;;;0.80;;
27612;SDS011;15036;48.094;-1.690;2023-07-28T05:05:51;1.37;;;0.80;;
27612;SDS011;15036;48.094;-1.690;2023-07-28T05:08:17;1.40;;;0.80;;
27612;SDS011;15036;48.094;-1.690;2023-07-28T05:10:42;1.33;;;0.70;;
27612;SDS011;15036;48.094;-1.690;2023-07-28T05:13:08;1.60;;;0.80;;
27612;SDS011;15036;48.094;-1.690;2023-07-28T05:15:33;1.10;;;0.80;;
27612;SDS011;15036;48.094;-1.690;2023-07-28T05:17:59;1.40;;;0.77;;
27612;SDS011;15036;48.094;-1.690;2023-07-28T05:20:24;0.90;;;0.70;;
27612;SDS011;15036;48.094;-1.690;2023-07-28T05:22:49;1.20;;;0.70;;
27612;SDS011;15036;48.094;-1.690;2023-07-28T05:25:15;1.37;;;0.80;;
27612;SDS011;15036;48.094;-1.690;2023-07-28T05:27:40;1.20;;;0.90;;
27612;SDS011;15036;48.094;-1.690;2023-07-28T05:30:06;1.27;;;0.80;;
27612;SDS011;15036;48.094;-1.690;2023-07-28T05:32:32;2.28;;;1.00;;
27612;SDS011;15036;48.094;-1.690;2023-07-28T05:34:57;1.67;;;0.90;;
27612;SDS011;15036;48.094;-1.690;2023-07-28T05:37:23;2.10;;;1.10;;
27612;SDS011;15036;48.094;-1.690;2023-07-28T05:39:48;1.70;;;1.03;;
27612;SDS011;15036;48.094;-1.690;2023-07-28T05:42:15;2.40;;;1.00;;
27612;SDS011;15036;48.094;-1.690;2023-07-28T05:44:40;2.22;;;1.23;;
27612;SDS011;15036;48.094;-1.690;2023-07-28T05:47:06;2.07;;;1.20;;
27612;SDS011;15036;48.094;-1.690;2023-07-28T05:49:31;1.93;;;1.23;;
27612;SDS011;15036;48.094;-1.690;2023-07-28T05:51:57;2.70;;;1.30;;
27612;SDS011;15036;48.094;-1.690;2023-07-28T05:54:22;2.07;;;1.50;;
27612;SDS011;15036;48.094;-1.690;2023-07-28T05:56:48;2.00;;;1.20;;
27612;SDS011;15036;48.094;-1.690;2023-07-28T05:59:13;4.27;;;1.30;;
27612;SDS011;15036;48.094;-1.690;2023-07-28T06:01:38;1.73;;;1.20;;
27612;SDS011;15036;48.094;-1.690;2023-07-28T06:04:04;2.30;;;1.00;;
27612;SDS011;15036;48.094;-1.690;2023-07-28T06:06:29;2.93;;;1.20;;
27612;SDS011;15036;48.094;-1.690;2023-07-28T06:08:54;1.90;;;1.20;;
27612;SDS011;15036;48.094;-1.690;2023-07-28T06:11:20;1.70;;;1.03;;
27612;SDS011;15036;48.094;-1.690;2023-07-28T06:13:46;1.77;;;1.00;;
27612;SDS011;15036;48.094;-1.690;2023-07-28T06:16:12;2.30;;;1.00;;
27612;SDS011;15036;48.094;-1.690;2023-07-28T06:18:38;1.77;;;1.10;;
27612;SDS011;15036;48.094;-1.690;2023-07-28T06:21:03;1.87;;;1.10;;
27612;SDS011;15036;48.094;-1.690;2023-07-28T06:23:29;1.37;;;1.00;;
27612;SDS011;15036;48.094;-1.690;2023-07-28T06:25:55;0.90;;;0.70;;
27612;SDS011;15036;48.094;-1.690;2023-07-28T06:28:21;1.52;;;0.80;;
27612;SDS011;15036;48.094;-1.690;2023-07-28T06:30:46;0.70;;;0.63;;
27612;SDS011;15036;48.094;-1.690;2023-07-28T06:33:12;2.23;;;0.80;;
27612;SDS011;15036;48.094;-1.690;2023-07-28T06:35:37;1.05;;;0.70;;
27612;SDS011;15036;48.094;-1.690;2023-07-28T06:38:03;1.17;;;0.73;;
27612;SDS011;15036;48.094;-1.690;2023-07-28T06:40:29;1.60;;;0.73;;
27612;SDS011;15036;48.094;-1.690;2023-07-28T06:42:55;1.52;;;0.80;;
27612;SDS011;15036;48.094;-1.690;2023-07-28T06:45:20;1.23;;;0.73;;
27612;SDS011;15036;48.094;-1.690;2023-07-28T06:47:46;1.30;;;0.90;;
27612;SDS011;15036;48.094;-1.690;2023-07-28T06:50:11;0.90;;;0.70;;
27612;SDS011;15036;48.094;-1.690;2023-07-28T06:52:37;0.90;;;0.70;;
27612;SDS011;15036;48.094;-1.690;2023-07-28T06:55:03;2.60;;;0.80;;
27612;SDS011;15036;48.094;-1.690;2023-07-28T06:57:28;2.20;;;0.80;;
27612;SDS011;15036;48.094;-1.690;2023-07-28T06:59:55;1.80;;;0.80;;
27612;SDS011;15036;48.094;-1.690;2023-07-28T07:02:21;2.30;;;0.70;;
27612;SDS011;15036;48.094;-1.690;2023-07-28T07:04:46;1.10;;;0.70;;
27612;SDS011;15036;48.094;-1.690;2023-07-28T07:07:12;0.90;;;0.70;;
27612;SDS011;15036;48.094;-1.690;2023-07-28T07:09:37;0.60;;;0.60;;
27612;SDS011;15036;48.094;-1.690;2023-07-28T07:12:03;0.87;;;0.73;;
27612;SDS011;15036;48.094;-1.690;2023-07-28T07:14:28;1.30;;;0.70;;
27612;SDS011;15036;48.094;-1.690;2023-07-28T07:16:54;2.83;;;0.70;;
27612;SDS011;15036;48.094;-1.690;2023-07-28T07:19:19;1.40;;;0.77;;
27612;SDS011;15036;48.094;-1.690;2023-07-28T07:21:44;1.00;;;0.80;;
27612;SDS011;15036;48.094;-1.690;2023-07-28T07:24:10;2.47;;;0.90;;
27612;SDS011;15036;48.094;-1.690;2023-07-28T07:26:38;1.77;;;0.80;;
27612;SDS011;15036;48.094;-1.690;2023-07-28T07:29:04;0.93;;;0.80;;
27612;SDS011;15036;48.094;-1.690;2023-07-28T07:31:29;2.10;;;0.80;;
27612;SDS011;15036;48.094;-1.690;2023-07-28T07:33:55;1.35;;;0.90;;
27612;SDS011;15036;48.094;-1.690;2023-07-28T07:36:20;1.63;;;0.90;;
27612;SDS011;15036;48.094;-1.690;2023-07-28T07:38:46;1.63;;;0.80;;
27612;SDS011;15036;48.094;-1.690;2023-07-28T07:41:12;1.50;;;0.90;;
27612;SDS011;15036;48.094;-1.690;2023-07-28T07:43:40;1.92;;;0.95;;
27612;SDS011;15036;48.094;-1.690;2023-07-28T07:46:06;3.67;;;1.20;;
27612;SDS011;15036;48.094;-1.690;2023-07-28T07:48:31;1.07;;;0.80;;
27612;SDS011;15036;48.094;-1.690;2023-07-28T07:50:57;1.60;;;0.90;;
27612;SDS011;15036;48.094;-1.690;2023-07-28T07:53:22;1.03;;;0.80;;
27612;SDS011;15036;48.094;-1.690;2023-07-28T07:55:48;1.17;;;1.00;;
27612;SDS011;15036;48.094;-1.690;2023-07-28T07:58:14;1.13;;;0.85;;
27612;SDS011;15036;48.094;-1.690;2023-07-28T08:00:39;1.73;;;1.00;;
27612;SDS011;15036;48.094;-1.690;2023-07-28T08:03:05;1.53;;;1.10;;
27612;SDS011;15036;48.094;-1.690;2023-07-28T08:05:30;1.40;;;1.00;;
27612;SDS011;15036;48.094;-1.690;2023-07-28T08:07:56;1.93;;;1.30;;
27612;SDS011;15036;48.094;-1.690;2023-07-28T08:10:21;2.50;;;1.30;;
27612;SDS011;15036;48.094;-1.690;2023-07-28T08:12:47;2.42;;;1.38;;
27612;SDS011;15036;48.094;-1.690;2023-07-28T08:15:13;2.40;;;1.48;;
27612;SDS011;15036;48.094;-1.690;2023-07-28T08:17:38;1.75;;;1.40;;
27612;SDS011;15036;48.094;-1.690;2023-07-28T08:20:04;2.08;;;1.40;;
27612;SDS011;15036;48.094;-1.690;2023-07-28T08:22:31;1.58;;;1.30;;
27612;SDS011;15036;48.094;-1.690;2023-07-28T08:24:57;2.22;;;1.38;;
27612;SDS011;15036;48.094;-1.690;2023-07-28T08:27:22;1.70;;;1.40;;
27612;SDS011;15036;48.094;-1.690;2023-07-28T08:29:49;2.70;;;1.30;;
27612;SDS011;15036;48.094;-1.690;2023-07-28T08:32:14;2.08;;;1.15;;
27612;SDS011;15036;48.094;-1.690;2023-07-28T08:34:39;1.40;;;1.03;;
27612;SDS011;15036;48.094;-1.690;2023-07-28T08:37:05;2.90;;;1.17;;
27612;SDS011;15036;48.094;-1.690;2023-07-28T08:39:30;1.90;;;1.05;;
27612;SDS011;15036;48.094;-1.690;2023-07-28T08:41:59;1.80;;;1.20;;
27612;SDS011;15036;48.094;-1.690;2023-07-28T08:44:25;1.83;;;1.15;;
27612;SDS011;15036;48.094;-1.690;2023-07-28T08:46:51;2.00;;;1.20;;
27612;SDS011;15036;48.094;-1.690;2023-07-28T08:49:17;1.50;;;1.00;;
27612;SDS011;15036;48.094;-1.690;2023-07-28T08:51:42;2.67;;;1.10;;
27612;SDS011;15036;48.094;-1.690;2023-07-28T08:54:13;1.83;;;1.10;;
27612;SDS011;15036;48.094;-1.690;2023-07-28T08:56:38;2.03;;;0.90;;
27612;SDS011;15036;48.094;-1.690;2023-07-28T08:59:03;2.10;;;1.00;;
27612;SDS011;15036;48.094;-1.690;2023-07-28T09:01:29;1.37;;;0.90;;
27612;SDS011;15036;48.094;-1.690;2023-07-28T09:03:55;1.23;;;0.90;;
27612;SDS011;15036;48.094;-1.690;2023-07-28T09:06:27;1.43;;;0.93;;
27612;SDS011;15036;48.094;-1.690;2023-07-28T09:08:55;2.20;;;1.00;;
27612;SDS011;15036;48.094;-1.690;2023-07-28T09:11:21;1.27;;;0.80;;
27612;SDS011;15036;48.094;-1.690;2023-07-28T09:13:52;1.08;;;0.68;;
27612;SDS011;15036;48.094;-1.690;2023-07-28T09:16:19;1.70;;;0.80;;
27612;SDS011;15036;48.094;-1.690;2023-07-28T09:18:45;1.25;;;0.60;;
27612;SDS011;15036;48.094;-1.690;2023-07-28T09:21:17;1.20;;;0.80;;
27612;SDS011;15036;48.094;-1.690;2023-07-28T09:23:46;1.45;;;0.80;;
27612;SDS011;15036;48.094;-1.690;2023-07-28T09:26:12;1.50;;;0.80;;
27612;SDS011;15036;48.094;-1.690;2023-07-28T09:28:39;1.40;;;0.70;;
27612;SDS011;15036;48.094;-1.690;2023-07-28T09:31:06;1.20;;;0.90;;
27612;SDS011;15036;48.094;-1.690;2023-07-28T09:33:34;1.20;;;0.77;;
27612;SDS011;15036;48.094;-1.690;2023-07-28T09:36:07;1.35;;;0.80;;
27612;SDS011;15036;48.094;-1.690;2023-07-28T09:38:37;0.80;;;0.60;;
27612;SDS011;15036;48.094;-1.690;2023-07-28T09:41:05;1.15;;;0.80;;
27612;SDS011;15036;48.094;-1.690;2023-07-28T09:43:34;1.20;;;0.80;;
27612;SDS011;15036;48.094;-1.690;2023-07-28T09:46:00;0.82;;;0.70;;
27612;SDS011;15036;48.094;-1.690;2023-07-28T09:48:32;2.10;;;1.00;;
27612;SDS011;15036;48.094;-1.690;2023-07-28T09:51:00;1.63;;;0.93;;
27612;SDS011;15036;48.094;-1.690;2023-07-28T09:53:30;3.25;;;1.20;;
27612;SDS011;15036;48.094;-1.690;2023-07-28T09:56:01;1.70;;;0.80;;
27612;SDS011;15036;48.094;-1.690;2023-07-28T09:58:27;1.30;;;0.95;;
27612;SDS011;15036;48.094;-1.690;2023-07-28T10:00:58;2.42;;;0.82;;
27612;SDS011;15036;48.094;-1.690;2023-07-28T10:03:24;3.00;;;1.00;;
27612;SDS011;15036;48.094;-1.690;2023-07-28T10:05:50;2.23;;;0.97;;
27612;SDS011;15036;48.094;-1.690;2023-07-28T10:08:15;1.95;;;1.00;;
27612;SDS011;15036;48.094;-1.690;2023-07-28T10:10:41;2.35;;;1.00;;
27612;SDS011;15036;48.094;-1.690;2023-07-28T10:13:06;2.20;;;0.80;;
27612;SDS011;15036;48.094;-1.690;2023-07-28T10:15:45;3.20;;;0.80;;
27612;SDS011;15036;48.094;-1.690;2023-07-28T10:18:12;1.58;;;0.90;;
27612;SDS011;15036;48.094;-1.690;2023-07-28T10:20:38;1.63;;;0.80;;
27612;SDS011;15036;48.094;-1.690;2023-07-28T10:23:26;2.00;;;0.90;;
27612;SDS011;15036;48.094;-1.690;2023-07-28T10:25:57;1.73;;;0.90;;
27612;SDS011;15036;48.094;-1.690;2023-07-28T10:28:26;3.53;;;0.90;;
27612;SDS011;15036;48.094;-1.690;2023-07-28T10:30:57;1.30;;;0.80;;
27612;SDS011;15036;48.094;-1.690;2023-07-28T10:35:57;1.30;;;0.90;;
27612;SDS011;15036;48.094;-1.690;2023-07-28T10:38:30;3.50;;;1.38;;
27612;SDS011;15036;48.094;-1.690;2023-07-28T10:41:06;3.72;;;1.30;;
27612;SDS011;15036;48.094;-1.690;2023-07-28T10:43:43;3.85;;;1.27;;
27612;SDS011;15036;48.094;-1.690;2023-07-28T10:46:10;2.67;;;1.08;;
27612;SDS011;15036;48.094;-1.690;2023-07-28T10:48:44;2.53;;;1.10;;
27612;SDS011;15036;48.094;-1.690;2023-07-28T10:51:11;1.83;;;1.02;;
27612;SDS011;15036;48.094;-1.690;2023-07-28T10:53:37;1.55;;;1.00;;
27612;SDS011;15036;48.094;-1.690;2023-07-28T10:56:03;1.52;;;1.00;;
27612;SDS011;15036;48.094;-1.690;2023-07-28T10:58:30;1.63;;;1.00;;
27612;SDS011;15036;48.094;-1.690;2023-07-28T11:00:58;2.08;;;1.10;;
27612;SDS011;15036;48.094;-1.690;2023-07-28T11:03:23;2.50;;;1.20;;
27612;SDS011;15036;48.094;-1.690;2023-07-28T11:05:49;1.97;;;1.10;;
27612;SDS011;15036;48.094;-1.690;2023-07-28T11:08:16;2.88;;;0.95;;
27612;SDS011;15036;48.094;-1.690;2023-07-28T11:10:41;1.70;;;0.98;;
27612;SDS011;15036;48.094;-1.690;2023-07-28T11:13:07;2.27;;;1.30;;
27612;SDS011;15036;48.094;-1.690;2023-07-28T11:15:32;1.83;;;1.20;;
27612;SDS011;15036;48.094;-1.690;2023-07-28T11:17:58;2.05;;;1.10;;
27612;SDS011;15036;48.094;-1.690;2023-07-28T11:20:27;1.48;;;0.93;;
27612;SDS011;15036;48.094;-1.690;2023-07-28T11:23:00;2.80;;;1.20;;
27612;SDS011;15036;48.094;-1.690;2023-07-28T11:25:28;3.77;;;1.90;;
27612;SDS011;15036;48.094;-1.690;2023-07-28T11:27:55;5.07;;;1.50;;
27612;SDS011;15036;48.094;-1.690;2023-07-28T11:30:21;4.33;;;1.90;;
27612;SDS011;15036;48.094;-1.690;2023-07-28T11:32:47;2.40;;;1.13;;
27612;SDS011;15036;48.094;-1.690;2023-07-28T11:35:14;1.50;;;1.00;;
27612;SDS011;15036;48.094;-1.690;2023-07-28T11:37:42;2.13;;;1.10;;
27612;SDS011;15036;48.094;-1.690;2023-07-28T11:40:09;2.80;;;1.30;;
27612;SDS011;15036;48.094;-1.690;2023-07-28T11:42:54;2.92;;;1.33;;
27612;SDS011;15036;48.094;-1.690;2023-07-28T11:45:20;4.00;;;1.10;;
27612;SDS011;15036;48.094;-1.690;2023-07-28T11:48:06;1.38;;;1.00;;
27612;SDS011;15036;48.094;-1.690;2023-07-28T11:50:36;4.97;;;1.10;;
27612;SDS011;15036;48.094;-1.690;2023-07-28T11:53:04;1.98;;;0.95;;
27612;SDS011;15036;48.094;-1.690;2023-07-28T11:55:31;6.43;;;1.17;;
27612;SDS011;15036;48.094;-1.690;2023-07-28T11:57:57;1.73;;;0.90;;
27612;SDS011;15036;48.094;-1.690;2023-07-28T12:00:29;1.67;;;0.90;;
27612;SDS011;15036;48.094;-1.690;2023-07-28T12:03:02;1.55;;;0.90;;
27612;SDS011;15036;48.094;-1.690;2023-07-28T12:05:34;2.72;;;0.90;;
27612;SDS011;15036;48.094;-1.690;2023-07-28T12:08:00;1.00;;;0.70;;
27612;SDS011;15036;48.094;-1.690;2023-07-28T12:10:28;1.30;;;0.90;;
27612;SDS011;15036;48.094;-1.690;2023-07-28T12:12:54;1.53;;;1.00;;
27612;SDS011;15036;48.094;-1.690;2023-07-28T12:15:26;1.17;;;0.77;;
27612;SDS011;15036;48.094;-1.690;2023-07-28T12:18:08;1.23;;;0.88;;
27612;SDS011;15036;48.094;-1.690;2023-07-28T12:20:45;1.75;;;1.08;;
27612;SDS011;15036;48.094;-1.690;2023-07-28T12:23:12;1.60;;;0.80;;
27612;SDS011;15036;48.094;-1.690;2023-07-28T12:25:42;1.10;;;0.88;;
27612;SDS011;15036;48.094;-1.690;2023-07-28T12:28:08;1.05;;;0.80;;
27612;SDS011;15036;48.094;-1.690;2023-07-28T12:30:34;1.50;;;0.90;;
27612;SDS011;15036;48.094;-1.690;2023-07-28T12:33:00;0.98;;;0.82;;
27612;SDS011;15036;48.094;-1.690;2023-07-28T12:35:26;1.30;;;0.90;;
27612;SDS011;15036;48.094;-1.690;2023-07-28T12:37:56;1.88;;;0.80;;
27612;SDS011;15036;48.094;-1.690;2023-07-28T12:40:22;1.10;;;0.80;;
27612;SDS011;15036;48.094;-1.690;2023-07-28T12:42:48;1.00;;;0.80;;
27612;SDS011;15036;48.094;-1.690;2023-07-28T12:45:14;1.43;;;0.80;;
27612;SDS011;15036;48.094;-1.690;2023-07-28T12:47:40;1.15;;;0.80;;
27612;SDS011;15036;48.094;-1.690;2023-07-28T12:50:06;2.63;;;0.90;;
27612;SDS011;15036;48.094;-1.690;2023-07-28T12:52:32;1.90;;;0.83;;
27612;SDS011;15036;48.094;-1.690;2023-07-28T12:54:57;1.13;;;0.90;;
27612;SDS011;15036;48.094;-1.690;2023-07-28T12:57:23;1.08;;;0.70;;
27612;SDS011;15036;48.094;-1.690;2023-07-28T12:59:49;1.60;;;0.90;;
27612;SDS011;15036;48.094;-1.690;2023-07-28T13:02:14;1.53;;;0.70;;
27612;SDS011;15036;48.094;-1.690;2023-07-28T13:04:39;1.37;;;0.80;;
27612;SDS011;15036;48.094;-1.690;2023-07-28T13:07:05;1.43;;;0.70;;
27612;SDS011;15036;48.094;-1.690;2023-07-28T13:09:30;1.53;;;0.93;;
27612;SDS011;15036;48.094;-1.690;2023-07-28T13:11:56;1.50;;;0.93;;
27612;SDS011;15036;48.094;-1.690;2023-07-28T13:14:21;1.17;;;0.80;;
27612;SDS011;15036;48.094;-1.690;2023-07-28T13:16:46;2.43;;;0.90;;
27612;SDS011;15036;48.094;-1.690;2023-07-28T13:19:12;1.37;;;1.00;;
27612;SDS011;15036;48.094;-1.690;2023-07-28T13:21:37;1.70;;;0.90;;
27612;SDS011;15036;48.094;-1.690;2023-07-28T13:24:02;1.63;;;0.97;;
27612;SDS011;15036;48.094;-1.690;2023-07-28T13:26:28;1.40;;;1.00;;
27612;SDS011;15036;48.094;-1.690;2023-07-28T13:28:53;2.60;;;0.90;;
27612;SDS011;15036;48.094;-1.690;2023-07-28T13:31:20;1.30;;;0.80;;
27612;SDS011;15036;48.094;-1.690;2023-07-28T13:33:46;1.60;;;0.90;;
27612;SDS011;15036;48.094;-1.690;2023-07-28T13:36:11;3.37;;;0.90;;
27612;SDS011;15036;48.094;-1.690;2023-07-28T13:38:37;1.48;;;0.98;;
27612;SDS011;15036;48.094;-1.690;2023-07-28T13:41:05;1.50;;;1.00;;
27612;SDS011;15036;48.094;-1.690;2023-07-28T13:43:32;1.77;;;0.90;;
27612;SDS011;15036;48.094;-1.690;2023-07-28T13:46:00;1.38;;;0.93;;
27612;SDS011;15036;48.094;-1.690;2023-07-28T13:48:26;1.50;;;1.00;;
27612;SDS011;15036;48.094;-1.690;2023-07-28T13:50:52;1.27;;;1.00;;
27612;SDS011;15036;48.094;-1.690;2023-07-28T13:53:17;1.50;;;1.00;;
27612;SDS011;15036;48.094;-1.690;2023-07-28T13:55:42;2.78;;;1.17;;
27612;SDS011;15036;48.094;-1.690;2023-07-28T13:58:08;1.97;;;1.00;;
27612;SDS011;15036;48.094;-1.690;2023-07-28T14:00:33;1.87;;;1.10;;
27612;SDS011;15036;48.094;-1.690;2023-07-28T14:02:58;1.25;;;0.90;;
27612;SDS011;15036;48.094;-1.690;2023-07-28T14:05:24;2.23;;;1.00;;
27612;SDS011;15036;48.094;-1.690;2023-07-28T14:07:49;1.75;;;1.10;;
27612;SDS011;15036;48.094;-1.690;2023-07-28T14:10:15;1.67;;;1.00;;
27612;SDS011;15036;48.094;-1.690;2023-07-28T14:12:40;2.73;;;1.07;;
27612;SDS011;15036;48.094;-1.690;2023-07-28T14:15:06;2.42;;;1.25;;
27612;SDS011;15036;48.094;-1.690;2023-07-28T14:17:33;2.55;;;1.20;;
27612;SDS011;15036;48.094;-1.690;2023-07-28T14:19:58;2.13;;;1.13;;
27612;SDS011;15036;48.094;-1.690;2023-07-28T14:22:24;1.73;;;1.00;;
27612;SDS011;15036;48.094;-1.690;2023-07-28T14:24:49;1.53;;;1.03;;
27612;SDS011;15036;48.094;-1.690;2023-07-28T14:27:15;2.63;;;1.10;;
27612;SDS011;15036;48.094;-1.690;2023-07-28T14:29:40;1.33;;;1.00;;
27612;SDS011;15036;48.094;-1.690;2023-07-28T14:32:06;1.30;;;0.90;;
27612;SDS011;15036;48.094;-1.690;2023-07-28T14:34:31;2.70;;;1.25;;